sensor_id;sensor_type;location;lat;lon;timestamp;P1;durP1;ratioP1;P2;durP2;ratioP2
21611;SDS011;47005;52.292;13.452;2023-08-06T00:01:39;6.88;;;5.60;;
21611;SDS011;47005;52.292;13.452;2023-08-06T00:04:05;7.47;;;5.93;;
21611;SDS011;47005;52.292;13.452;2023-08-06T00:06:31;6.25;;;5.50;;
21611;SDS011;47005;52.292;13.452;2023-08-06T00:08:56;8.00;;;5.82;;
21611;SDS011;47005;52.292;13.452;2023-08-06T00:11:22;7.57;;;5.75;;
21611;SDS011;47005;52.292;13.452;2023-08-06T00:13:48;8.82;;;6.18;;
21611;SDS011;47005;52.292;13.452;2023-08-06T00:16:13;7.07;;;5.28;;
21611;SDS011;47005;52.292;13.452;2023-08-06T00:18:39;6.90;;;4.88;;
21611;SDS011;47005;52.292;13.452;2023-08-06T00:21:05;6.78;;;5.32;;
21611;SDS011;47005;52.292;13.452;2023-08-06T00:23:31;6.72;;;5.88;;
21611;SDS011;47005;52.292;13.452;2023-08-06T00:25:57;6.90;;;4.95;;
21611;SDS011;47005;52.292;13.452;2023-08-06T00:28:22;7.93;;;5.60;;
21611;SDS011;47005;52.292;13.452;2023-08-06T00:30:54;8.43;;;5.25;;
21611;SDS011;47005;52.292;13.452;2023-08-06T00:33:23;9.25;;;5.85;;
21611;SDS011;47005;52.292;13.452;2023-08-06T00:35:49;7.40;;;5.68;;
21611;SDS011;47005;52.292;13.452;2023-08-06T00:38:14;7.20;;;5.63;;
21611;SDS011;47005;52.292;13.452;2023-08-06T00:40:40;6.60;;;4.95;;
21611;SDS011;47005;52.292;13.452;2023-08-06T00:43:06;8.35;;;5.63;;
21611;SDS011;47005;52.292;13.452;2023-08-06T00:45:33;7.63;;;5.78;;
21611;SDS011;47005;52.292;13.452;2023-08-06T00:48:01;7.32;;;5.72;;
21611;SDS011;47005;52.292;13.452;2023-08-06T00:50:28;7.32;;;5.70;;
21611;SDS011;47005;52.292;13.452;2023-08-06T00:52:54;7.32;;;6.03;;
21611;SDS011;47005;52.292;13.452;2023-08-06T00:55:20;8.23;;;5.68;;
21611;SDS011;47005;52.292;13.452;2023-08-06T00:57:46;10.52;;;6.28;;
21611;SDS011;47005;52.292;13.452;2023-08-06T01:00:12;10.98;;;6.10;;
21611;SDS011;47005;52.292;13.452;2023-08-06T01:02:38;6.18;;;5.50;;
21611;SDS011;47005;52.292;13.452;2023-08-06T01:05:04;7.43;;;5.75;;
21611;SDS011;47005;52.292;13.452;2023-08-06T01:15:38;7.20;;;5.43;;
21611;SDS011;47005;52.292;13.452;2023-08-06T01:18:08;8.93;;;6.32;;
21611;SDS011;47005;52.292;13.452;2023-08-06T01:20:35;12.63;;;5.80;;
21611;SDS011;47005;52.292;13.452;2023-08-06T01:23:00;7.82;;;5.95;;
21611;SDS011;47005;52.292;13.452;2023-08-06T01:25:28;8.35;;;5.57;;
21611;SDS011;47005;52.292;13.452;2023-08-06T01:28:00;7.63;;;5.97;;
21611;SDS011;47005;52.292;13.452;2023-08-06T01:30:32;6.88;;;5.82;;
21611;SDS011;47005;52.292;13.452;2023-08-06T01:33:02;7.50;;;6.13;;
21611;SDS011;47005;52.292;13.452;2023-08-06T01:35:30;7.65;;;5.68;;
21611;SDS011;47005;52.292;13.452;2023-08-06T01:37:59;7.28;;;5.68;;
21611;SDS011;47005;52.292;13.452;2023-08-06T01:40:26;6.50;;;4.78;;
21611;SDS011;47005;52.292;13.452;2023-08-06T01:42:53;7.75;;;5.72;;
21611;SDS011;47005;52.292;13.452;2023-08-06T01:45:19;7.85;;;5.63;;
21611;SDS011;47005;52.292;13.452;2023-08-06T01:47:44;8.35;;;5.90;;
21611;SDS011;47005;52.292;13.452;2023-08-06T01:50:10;7.43;;;5.70;;
21611;SDS011;47005;52.292;13.452;2023-08-06T01:52:35;9.30;;;5.95;;
21611;SDS011;47005;52.292;13.452;2023-08-06T01:55:01;7.53;;;5.90;;
21611;SDS011;47005;52.292;13.452;2023-08-06T01:57:27;7.80;;;5.15;;
21611;SDS011;47005;52.292;13.452;2023-08-06T01:59:53;9.57;;;5.70;;
21611;SDS011;47005;52.292;13.452;2023-08-06T02:02:18;7.60;;;6.30;;
21611;SDS011;47005;52.292;13.452;2023-08-06T02:04:44;7.68;;;6.07;;
21611;SDS011;47005;52.292;13.452;2023-08-06T02:07:10;7.85;;;5.70;;
21611;SDS011;47005;52.292;13.452;2023-08-06T02:09:35;7.75;;;6.03;;
21611;SDS011;47005;52.292;13.452;2023-08-06T02:12:01;10.60;;;6.43;;
21611;SDS011;47005;52.292;13.452;2023-08-06T02:14:27;6.78;;;5.72;;
21611;SDS011;47005;52.292;13.452;2023-08-06T02:16:53;8.00;;;5.68;;
21611;SDS011;47005;52.292;13.452;2023-08-06T02:19:18;7.82;;;6.15;;
21611;SDS011;47005;52.292;13.452;2023-08-06T02:21:44;7.35;;;5.15;;
21611;SDS011;47005;52.292;13.452;2023-08-06T02:24:10;7.35;;;5.93;;
21611;SDS011;47005;52.292;13.452;2023-08-06T02:26:35;8.65;;;5.75;;
21611;SDS011;47005;52.292;13.452;2023-08-06T02:29:01;7.05;;;5.53;;
21611;SDS011;47005;52.292;13.452;2023-08-06T02:31:27;8.90;;;5.40;;
21611;SDS011;47005;52.292;13.452;2023-08-06T02:33:52;9.07;;;5.20;;
21611;SDS011;47005;52.292;13.452;2023-08-06T02:36:19;8.27;;;5.80;;
21611;SDS011;47005;52.292;13.452;2023-08-06T02:38:44;6.75;;;5.75;;
21611;SDS011;47005;52.292;13.452;2023-08-06T02:41:10;8.60;;;5.40;;
21611;SDS011;47005;52.292;13.452;2023-08-06T02:43:36;7.93;;;5.35;;
21611;SDS011;47005;52.292;13.452;2023-08-06T02:46:01;6.93;;;5.60;;
21611;SDS011;47005;52.292;13.452;2023-08-06T02:48:27;8.00;;;5.53;;
21611;SDS011;47005;52.292;13.452;2023-08-06T02:50:56;7.03;;;5.47;;
21611;SDS011;47005;52.292;13.452;2023-08-06T02:53:23;7.47;;;5.53;;
21611;SDS011;47005;52.292;13.452;2023-08-06T02:55:48;9.73;;;5.63;;
21611;SDS011;47005;52.292;13.452;2023-08-06T02:58:14;7.88;;;6.05;;
21611;SDS011;47005;52.292;13.452;2023-08-06T03:00:41;6.63;;;4.65;;
21611;SDS011;47005;52.292;13.452;2023-08-06T03:03:07;6.97;;;5.28;;
21611;SDS011;47005;52.292;13.452;2023-08-06T03:05:32;5.97;;;5.25;;
21611;SDS011;47005;52.292;13.452;2023-08-06T03:07:58;9.23;;;5.55;;
21611;SDS011;47005;52.292;13.452;2023-08-06T03:10:24;7.60;;;5.07;;
21611;SDS011;47005;52.292;13.452;2023-08-06T03:12:49;6.40;;;5.57;;
21611;SDS011;47005;52.292;13.452;2023-08-06T03:15:15;7.43;;;5.05;;
21611;SDS011;47005;52.292;13.452;2023-08-06T03:17:40;7.70;;;5.43;;
21611;SDS011;47005;52.292;13.452;2023-08-06T03:20:06;7.05;;;4.60;;
21611;SDS011;47005;52.292;13.452;2023-08-06T03:22:32;7.72;;;5.30;;
21611;SDS011;47005;52.292;13.452;2023-08-06T03:24:58;6.82;;;5.28;;
21611;SDS011;47005;52.292;13.452;2023-08-06T03:27:23;8.02;;;5.25;;
21611;SDS011;47005;52.292;13.452;2023-08-06T03:29:49;8.00;;;5.78;;
21611;SDS011;47005;52.292;13.452;2023-08-06T03:32:15;6.95;;;5.30;;
21611;SDS011;47005;52.292;13.452;2023-08-06T03:34:41;7.25;;;5.32;;
21611;SDS011;47005;52.292;13.452;2023-08-06T03:37:06;7.43;;;5.57;;
21611;SDS011;47005;52.292;13.452;2023-08-06T03:39:32;8.52;;;5.88;;
21611;SDS011;47005;52.292;13.452;2023-08-06T03:41:58;7.35;;;5.78;;
21611;SDS011;47005;52.292;13.452;2023-08-06T03:44:23;5.80;;;4.97;;
21611;SDS011;47005;52.292;13.452;2023-08-06T03:46:49;6.07;;;4.57;;
21611;SDS011;47005;52.292;13.452;2023-08-06T03:49:15;8.15;;;5.40;;
21611;SDS011;47005;52.292;13.452;2023-08-06T03:51:40;8.25;;;5.10;;
21611;SDS011;47005;52.292;13.452;2023-08-06T03:54:06;6.45;;;4.72;;
21611;SDS011;47005;52.292;13.452;2023-08-06T03:56:31;6.57;;;5.50;;
21611;SDS011;47005;52.292;13.452;2023-08-06T03:58:57;9.25;;;5.20;;
21611;SDS011;47005;52.292;13.452;2023-08-06T04:01:22;7.35;;;5.55;;
21611;SDS011;47005;52.292;13.452;2023-08-06T04:03:48;7.00;;;5.43;;
21611;SDS011;47005;52.292;13.452;2023-08-06T04:06:14;7.75;;;5.47;;
21611;SDS011;47005;52.292;13.452;2023-08-06T04:08:39;10.52;;;5.20;;
21611;SDS011;47005;52.292;13.452;2023-08-06T04:11:05;10.52;;;5.68;;
21611;SDS011;47005;52.292;13.452;2023-08-06T04:13:31;5.97;;;4.28;;
21611;SDS011;47005;52.292;13.452;2023-08-06T04:16:00;9.45;;;5.35;;
21611;SDS011;47005;52.292;13.452;2023-08-06T04:18:29;7.75;;;5.68;;
21611;SDS011;47005;52.292;13.452;2023-08-06T04:20:54;8.18;;;5.20;;
21611;SDS011;47005;52.292;13.452;2023-08-06T04:23:22;7.00;;;5.13;;
21611;SDS011;47005;52.292;13.452;2023-08-06T04:25:48;6.82;;;5.13;;
21611;SDS011;47005;52.292;13.452;2023-08-06T04:28:13;9.35;;;4.90;;
21611;SDS011;47005;52.292;13.452;2023-08-06T04:30:39;7.25;;;5.65;;
21611;SDS011;47005;52.292;13.452;2023-08-06T04:33:04;6.90;;;5.82;;
21611;SDS011;47005;52.292;13.452;2023-08-06T04:35:30;8.18;;;5.20;;
21611;SDS011;47005;52.292;13.452;2023-08-06T04:37:56;9.55;;;5.63;;
21611;SDS011;47005;52.292;13.452;2023-08-06T04:40:21;7.13;;;5.80;;
21611;SDS011;47005;52.292;13.452;2023-08-06T04:42:47;11.80;;;5.78;;
21611;SDS011;47005;52.292;13.452;2023-08-06T04:45:13;8.40;;;6.07;;
21611;SDS011;47005;52.292;13.452;2023-08-06T04:47:38;8.77;;;5.90;;
21611;SDS011;47005;52.292;13.452;2023-08-06T04:50:04;6.88;;;6.13;;
21611;SDS011;47005;52.292;13.452;2023-08-06T04:52:30;8.50;;;6.43;;
21611;SDS011;47005;52.292;13.452;2023-08-06T04:54:57;7.65;;;6.03;;
21611;SDS011;47005;52.292;13.452;2023-08-06T04:57:23;8.43;;;5.82;;
21611;SDS011;47005;52.292;13.452;2023-08-06T04:59:48;8.23;;;5.18;;
21611;SDS011;47005;52.292;13.452;2023-08-06T05:02:14;9.27;;;5.85;;
21611;SDS011;47005;52.292;13.452;2023-08-06T05:04:40;7.13;;;5.65;;
21611;SDS011;47005;52.292;13.452;2023-08-06T05:07:05;7.20;;;5.40;;
21611;SDS011;47005;52.292;13.452;2023-08-06T05:09:31;9.02;;;5.63;;
21611;SDS011;47005;52.292;13.452;2023-08-06T05:11:57;7.22;;;6.05;;
21611;SDS011;47005;52.292;13.452;2023-08-06T05:14:22;7.75;;;6.45;;
21611;SDS011;47005;52.292;13.452;2023-08-06T05:16:48;7.40;;;5.85;;
21611;SDS011;47005;52.292;13.452;2023-08-06T05:19:14;7.13;;;5.82;;
21611;SDS011;47005;52.292;13.452;2023-08-06T05:21:39;9.35;;;6.45;;
21611;SDS011;47005;52.292;13.452;2023-08-06T05:24:05;8.50;;;6.03;;
21611;SDS011;47005;52.292;13.452;2023-08-06T05:26:30;8.65;;;5.43;;
21611;SDS011;47005;52.292;13.452;2023-08-06T05:28:56;6.63;;;5.65;;
21611;SDS011;47005;52.292;13.452;2023-08-06T05:31:22;6.90;;;5.53;;
21611;SDS011;47005;52.292;13.452;2023-08-06T05:33:47;7.07;;;5.70;;
21611;SDS011;47005;52.292;13.452;2023-08-06T05:36:13;8.32;;;6.15;;
21611;SDS011;47005;52.292;13.452;2023-08-06T05:38:38;8.40;;;6.32;;
21611;SDS011;47005;52.292;13.452;2023-08-06T05:41:04;8.45;;;5.50;;
21611;SDS011;47005;52.292;13.452;2023-08-06T05:43:30;10.10;;;6.20;;
21611;SDS011;47005;52.292;13.452;2023-08-06T05:45:55;8.02;;;5.43;;
21611;SDS011;47005;52.292;13.452;2023-08-06T05:48:21;7.50;;;5.88;;
21611;SDS011;47005;52.292;13.452;2023-08-06T05:50:49;8.63;;;5.22;;
21611;SDS011;47005;52.292;13.452;2023-08-06T05:53:15;7.35;;;5.90;;
21611;SDS011;47005;52.292;13.452;2023-08-06T05:55:41;6.18;;;5.35;;
21611;SDS011;47005;52.292;13.452;2023-08-06T05:58:06;6.72;;;5.43;;
21611;SDS011;47005;52.292;13.452;2023-08-06T06:00:32;6.72;;;5.40;;
21611;SDS011;47005;52.292;13.452;2023-08-06T06:02:58;9.07;;;5.50;;
21611;SDS011;47005;52.292;13.452;2023-08-06T06:05:24;7.68;;;5.05;;
21611;SDS011;47005;52.292;13.452;2023-08-06T06:07:49;5.90;;;4.75;;
21611;SDS011;47005;52.292;13.452;2023-08-06T06:10:15;10.07;;;6.18;;
21611;SDS011;47005;52.292;13.452;2023-08-06T06:12:40;6.70;;;5.40;;
21611;SDS011;47005;52.292;13.452;2023-08-06T06:15:06;6.45;;;4.80;;
21611;SDS011;47005;52.292;13.452;2023-08-06T06:17:32;8.00;;;5.65;;
21611;SDS011;47005;52.292;13.452;2023-08-06T06:19:58;9.05;;;5.90;;
21611;SDS011;47005;52.292;13.452;2023-08-06T06:22:23;7.50;;;5.63;;
21611;SDS011;47005;52.292;13.452;2023-08-06T06:24:49;10.00;;;6.53;;
21611;SDS011;47005;52.292;13.452;2023-08-06T06:27:15;8.07;;;5.65;;
21611;SDS011;47005;52.292;13.452;2023-08-06T06:29:40;8.00;;;5.57;;
21611;SDS011;47005;52.292;13.452;2023-08-06T06:32:06;7.57;;;5.63;;
21611;SDS011;47005;52.292;13.452;2023-08-06T06:34:32;7.78;;;5.55;;
21611;SDS011;47005;52.292;13.452;2023-08-06T06:36:57;5.90;;;4.53;;
21611;SDS011;47005;52.292;13.452;2023-08-06T06:39:23;7.63;;;5.40;;
21611;SDS011;47005;52.292;13.452;2023-08-06T06:41:49;7.30;;;5.65;;
21611;SDS011;47005;52.292;13.452;2023-08-06T06:44:14;8.73;;;5.80;;
21611;SDS011;47005;52.292;13.452;2023-08-06T06:46:40;8.45;;;5.93;;
21611;SDS011;47005;52.292;13.452;2023-08-06T06:49:06;6.75;;;5.38;;
21611;SDS011;47005;52.292;13.452;2023-08-06T06:51:31;7.30;;;5.47;;
21611;SDS011;47005;52.292;13.452;2023-08-06T06:53:57;7.50;;;6.13;;
21611;SDS011;47005;52.292;13.452;2023-08-06T06:56:23;7.75;;;5.45;;
21611;SDS011;47005;52.292;13.452;2023-08-06T06:58:48;7.13;;;6.00;;
21611;SDS011;47005;52.292;13.452;2023-08-06T07:01:14;6.82;;;5.72;;
21611;SDS011;47005;52.292;13.452;2023-08-06T07:03:40;8.60;;;6.43;;
21611;SDS011;47005;52.292;13.452;2023-08-06T07:06:06;8.30;;;5.50;;
21611;SDS011;47005;52.292;13.452;2023-08-06T07:08:31;7.50;;;6.20;;
21611;SDS011;47005;52.292;13.452;2023-08-06T07:11:04;8.57;;;6.03;;
21611;SDS011;47005;52.292;13.452;2023-08-06T07:13:31;7.60;;;6.40;;
21611;SDS011;47005;52.292;13.452;2023-08-06T07:15:57;8.10;;;6.03;;
21611;SDS011;47005;52.292;13.452;2023-08-06T07:18:24;7.57;;;6.57;;
21611;SDS011;47005;52.292;13.452;2023-08-06T07:20:50;7.70;;;6.53;;
21611;SDS011;47005;52.292;13.452;2023-08-06T07:23:17;8.45;;;6.18;;
21611;SDS011;47005;52.292;13.452;2023-08-06T07:25:46;6.40;;;5.68;;
21611;SDS011;47005;52.292;13.452;2023-08-06T07:28:12;8.43;;;5.60;;
21611;SDS011;47005;52.292;13.452;2023-08-06T07:30:39;9.75;;;6.07;;
21611;SDS011;47005;52.292;13.452;2023-08-06T07:33:05;6.47;;;5.32;;
21611;SDS011;47005;52.292;13.452;2023-08-06T07:35:32;8.48;;;5.75;;
21611;SDS011;47005;52.292;13.452;2023-08-06T07:37:58;8.20;;;6.10;;
21611;SDS011;47005;52.292;13.452;2023-08-06T07:40:24;6.68;;;5.32;;
21611;SDS011;47005;52.292;13.452;2023-08-06T07:42:49;7.40;;;6.30;;
21611;SDS011;47005;52.292;13.452;2023-08-06T07:45:15;7.80;;;6.00;;
21611;SDS011;47005;52.292;13.452;2023-08-06T07:47:40;9.20;;;6.18;;
21611;SDS011;47005;52.292;13.452;2023-08-06T07:50:07;7.32;;;5.68;;
21611;SDS011;47005;52.292;13.452;2023-08-06T07:52:33;6.60;;;5.15;;
21611;SDS011;47005;52.292;13.452;2023-08-06T07:54:59;9.00;;;6.35;;
21611;SDS011;47005;52.292;13.452;2023-08-06T07:57:26;7.50;;;5.65;;
21611;SDS011;47005;52.292;13.452;2023-08-06T07:59:52;8.10;;;5.75;;
21611;SDS011;47005;52.292;13.452;2023-08-06T08:02:18;6.45;;;4.80;;
21611;SDS011;47005;52.292;13.452;2023-08-06T08:04:44;7.57;;;5.65;;
21611;SDS011;47005;52.292;13.452;2023-08-06T08:07:12;6.63;;;5.15;;
21611;SDS011;47005;52.292;13.452;2023-08-06T08:09:38;6.72;;;5.45;;
21611;SDS011;47005;52.292;13.452;2023-08-06T08:12:03;6.78;;;5.63;;
21611;SDS011;47005;52.292;13.452;2023-08-06T08:14:29;6.82;;;5.13;;
21611;SDS011;47005;52.292;13.452;2023-08-06T08:17:00;7.40;;;5.25;;
21611;SDS011;47005;52.292;13.452;2023-08-06T08:19:30;7.63;;;6.25;;
21611;SDS011;47005;52.292;13.452;2023-08-06T08:21:56;7.28;;;6.10;;
21611;SDS011;47005;52.292;13.452;2023-08-06T08:24:22;6.85;;;5.43;;
21611;SDS011;47005;52.292;13.452;2023-08-06T08:26:51;9.48;;;6.07;;
21611;SDS011;47005;52.292;13.452;2023-08-06T08:29:19;6.88;;;5.88;;
21611;SDS011;47005;52.292;13.452;2023-08-06T08:31:46;8.30;;;6.05;;
21611;SDS011;47005;52.292;13.452;2023-08-06T08:34:14;7.65;;;6.28;;
21611;SDS011;47005;52.292;13.452;2023-08-06T08:36:40;6.68;;;5.75;;
21611;SDS011;47005;52.292;13.452;2023-08-06T08:39:06;6.88;;;5.72;;
21611;SDS011;47005;52.292;13.452;2023-08-06T08:41:31;9.45;;;7.82;;
21611;SDS011;47005;52.292;13.452;2023-08-06T08:43:59;7.13;;;5.68;;
21611;SDS011;47005;52.292;13.452;2023-08-06T08:46:29;7.22;;;6.45;;
21611;SDS011;47005;52.292;13.452;2023-08-06T08:48:57;7.63;;;5.82;;
21611;SDS011;47005;52.292;13.452;2023-08-06T08:51:24;8.43;;;6.25;;
21611;SDS011;47005;52.292;13.452;2023-08-06T08:53:52;9.07;;;6.85;;
21611;SDS011;47005;52.292;13.452;2023-08-06T08:56:21;10.05;;;6.75;;
21611;SDS011;47005;52.292;13.452;2023-08-06T08:58:47;7.88;;;6.18;;
21611;SDS011;47005;52.292;13.452;2023-08-06T09:01:13;9.57;;;6.03;;
21611;SDS011;47005;52.292;13.452;2023-08-06T09:03:40;10.27;;;5.95;;
21611;SDS011;47005;52.292;13.452;2023-08-06T09:06:07;7.63;;;6.00;;
21611;SDS011;47005;52.292;13.452;2023-08-06T09:08:36;9.00;;;6.57;;
21611;SDS011;47005;52.292;13.452;2023-08-06T09:11:07;9.02;;;6.43;;
21611;SDS011;47005;52.292;13.452;2023-08-06T09:13:36;8.30;;;6.82;;
21611;SDS011;47005;52.292;13.452;2023-08-06T09:16:03;8.25;;;7.03;;
21611;SDS011;47005;52.292;13.452;2023-08-06T09:18:29;9.50;;;7.60;;
21611;SDS011;47005;52.292;13.452;2023-08-06T09:20:56;13.13;;;7.63;;
21611;SDS011;47005;52.292;13.452;2023-08-06T09:23:30;7.55;;;6.75;;
21611;SDS011;47005;52.292;13.452;2023-08-06T09:25:58;7.88;;;6.93;;
21611;SDS011;47005;52.292;13.452;2023-08-06T09:28:24;8.68;;;7.78;;
21611;SDS011;47005;52.292;13.452;2023-08-06T09:30:50;8.55;;;7.05;;
21611;SDS011;47005;52.292;13.452;2023-08-06T09:33:19;8.38;;;6.80;;
21611;SDS011;47005;52.292;13.452;2023-08-06T09:35:48;9.50;;;8.07;;
21611;SDS011;47005;52.292;13.452;2023-08-06T09:38:13;14.00;;;7.95;;
21611;SDS011;47005;52.292;13.452;2023-08-06T09:40:39;9.25;;;7.78;;
21611;SDS011;47005;52.292;13.452;2023-08-06T09:43:05;10.45;;;8.68;;
21611;SDS011;47005;52.292;13.452;2023-08-06T09:45:34;11.32;;;7.55;;
21611;SDS011;47005;52.292;13.452;2023-08-06T09:48:04;8.65;;;7.18;;
21611;SDS011;47005;52.292;13.452;2023-08-06T09:50:34;11.13;;;8.65;;
21611;SDS011;47005;52.292;13.452;2023-08-06T09:53:01;9.13;;;8.20;;
21611;SDS011;47005;52.292;13.452;2023-08-06T09:55:31;10.02;;;7.78;;
21611;SDS011;47005;52.292;13.452;2023-08-06T09:57:58;12.35;;;9.32;;
21611;SDS011;47005;52.292;13.452;2023-08-06T10:00:24;11.00;;;9.48;;
21611;SDS011;47005;52.292;13.452;2023-08-06T10:02:51;11.48;;;9.52;;
21611;SDS011;47005;52.292;13.452;2023-08-06T10:05:20;11.77;;;8.90;;
21611;SDS011;47005;52.292;13.452;2023-08-06T10:07:47;12.88;;;8.77;;
21611;SDS011;47005;52.292;13.452;2023-08-06T10:10:15;12.77;;;10.07;;
21611;SDS011;47005;52.292;13.452;2023-08-06T10:12:51;10.98;;;8.88;;
21611;SDS011;47005;52.292;13.452;2023-08-06T10:15:20;11.25;;;8.88;;
21611;SDS011;47005;52.292;13.452;2023-08-06T10:17:50;11.82;;;9.75;;
21611;SDS011;47005;52.292;13.452;2023-08-06T10:20:17;10.43;;;9.35;;
21611;SDS011;47005;52.292;13.452;2023-08-06T10:22:46;11.45;;;9.63;;
21611;SDS011;47005;52.292;13.452;2023-08-06T10:25:24;12.35;;;10.65;;
21611;SDS011;47005;52.292;13.452;2023-08-06T10:32:50;13.23;;;10.10;;
21611;SDS011;47005;52.292;13.452;2023-08-06T10:38:09;12.70;;;9.50;;
21611;SDS011;47005;52.292;13.452;2023-08-06T10:40:48;9.98;;;8.93;;
21611;SDS011;47005;52.292;13.452;2023-08-06T10:43:27;10.63;;;8.80;;
21611;SDS011;47005;52.292;13.452;2023-08-06T10:46:02;10.40;;;9.15;;
21611;SDS011;47005;52.292;13.452;2023-08-06T10:48:37;11.10;;;9.25;;
21611;SDS011;47005;52.292;13.452;2023-08-06T10:51:06;11.38;;;10.15;;
21611;SDS011;47005;52.292;13.452;2023-08-06T10:53:33;12.18;;;10.35;;
21611;SDS011;47005;52.292;13.452;2023-08-06T10:55:59;12.65;;;9.95;;
21611;SDS011;47005;52.292;13.452;2023-08-06T10:58:25;10.73;;;9.23;;
21611;SDS011;47005;52.292;13.452;2023-08-06T11:00:51;11.55;;;9.60;;
21611;SDS011;47005;52.292;13.452;2023-08-06T11:03:17;12.77;;;9.38;;
21611;SDS011;47005;52.292;13.452;2023-08-06T11:05:48;11.70;;;10.35;;
21611;SDS011;47005;52.292;13.452;2023-08-06T11:08:27;10.43;;;9.32;;
21611;SDS011;47005;52.292;13.452;2023-08-06T11:10:53;10.77;;;9.68;;
21611;SDS011;47005;52.292;13.452;2023-08-06T11:13:20;18.17;;;10.93;;
21611;SDS011;47005;52.292;13.452;2023-08-06T11:15:45;11.02;;;9.93;;
21611;SDS011;47005;52.292;13.452;2023-08-06T11:18:11;10.40;;;9.20;;
21611;SDS011;47005;52.292;13.452;2023-08-06T11:20:37;12.80;;;9.68;;
21611;SDS011;47005;52.292;13.452;2023-08-06T11:23:04;11.60;;;9.00;;
21611;SDS011;47005;52.292;13.452;2023-08-06T11:25:30;10.77;;;9.10;;
21611;SDS011;47005;52.292;13.452;2023-08-06T11:27:55;9.70;;;8.52;;
21611;SDS011;47005;52.292;13.452;2023-08-06T11:30:21;11.05;;;9.90;;
21611;SDS011;47005;52.292;13.452;2023-08-06T11:32:47;11.13;;;9.00;;
21611;SDS011;47005;52.292;13.452;2023-08-06T11:35:13;10.25;;;8.45;;
21611;SDS011;47005;52.292;13.452;2023-08-06T11:37:43;11.00;;;9.13;;
21611;SDS011;47005;52.292;13.452;2023-08-06T11:40:13;11.85;;;9.40;;
21611;SDS011;47005;52.292;13.452;2023-08-06T11:42:39;12.23;;;9.65;;
21611;SDS011;47005;52.292;13.452;2023-08-06T11:45:05;10.68;;;8.70;;
21611;SDS011;47005;52.292;13.452;2023-08-06T11:47:33;10.98;;;9.32;;
21611;SDS011;47005;52.292;13.452;2023-08-06T11:49:59;10.13;;;8.48;;
21611;SDS011;47005;52.292;13.452;2023-08-06T11:52:25;11.80;;;9.45;;
21611;SDS011;47005;52.292;13.452;2023-08-06T11:55:01;11.80;;;8.80;;
21611;SDS011;47005;52.292;13.452;2023-08-06T11:57:31;9.23;;;8.23;;
21611;SDS011;47005;52.292;13.452;2023-08-06T12:00:06;10.55;;;9.15;;
21611;SDS011;47005;52.292;13.452;2023-08-06T12:02:34;12.57;;;8.55;;
21611;SDS011;47005;52.292;13.452;2023-08-06T12:05:09;10.63;;;9.15;;
21611;SDS011;47005;52.292;13.452;2023-08-06T12:07:40;10.35;;;8.85;;
21611;SDS011;47005;52.292;13.452;2023-08-06T12:10:13;10.27;;;7.95;;
21611;SDS011;47005;52.292;13.452;2023-08-06T12:12:40;10.30;;;7.90;;
21611;SDS011;47005;52.292;13.452;2023-08-06T12:15:06;10.07;;;8.48;;
21611;SDS011;47005;52.292;13.452;2023-08-06T12:17:32;9.57;;;7.85;;
21611;SDS011;47005;52.292;13.452;2023-08-06T12:19:58;10.43;;;8.27;;
21611;SDS011;47005;52.292;13.452;2023-08-06T12:22:24;10.93;;;7.93;;
21611;SDS011;47005;52.292;13.452;2023-08-06T12:24:50;10.73;;;8.68;;
21611;SDS011;47005;52.292;13.452;2023-08-06T12:27:15;9.00;;;7.90;;
21611;SDS011;47005;52.292;13.452;2023-08-06T12:29:42;11.55;;;9.10;;
21611;SDS011;47005;52.292;13.452;2023-08-06T12:32:12;8.63;;;7.70;;
21611;SDS011;47005;52.292;13.452;2023-08-06T12:34:41;10.73;;;8.32;;
21611;SDS011;47005;52.292;13.452;2023-08-06T12:37:08;8.77;;;7.88;;
21611;SDS011;47005;52.292;13.452;2023-08-06T12:39:37;9.68;;;8.68;;
21611;SDS011;47005;52.292;13.452;2023-08-06T12:42:04;9.80;;;7.82;;
21611;SDS011;47005;52.292;13.452;2023-08-06T12:44:31;10.38;;;8.52;;
21611;SDS011;47005;52.292;13.452;2023-08-06T12:46:57;10.02;;;8.57;;
21611;SDS011;47005;52.292;13.452;2023-08-06T12:49:23;12.85;;;8.63;;
21611;SDS011;47005;52.292;13.452;2023-08-06T12:51:50;9.68;;;8.68;;
21611;SDS011;47005;52.292;13.452;2023-08-06T12:54:25;10.48;;;8.63;;
21611;SDS011;47005;52.292;13.452;2023-08-06T12:56:51;12.25;;;8.85;;
21611;SDS011;47005;52.292;13.452;2023-08-06T12:59:17;11.60;;;8.98;;
21611;SDS011;47005;52.292;13.452;2023-08-06T13:01:43;10.70;;;8.43;;
21611;SDS011;47005;52.292;13.452;2023-08-06T13:04:09;9.25;;;8.07;;
21611;SDS011;47005;52.292;13.452;2023-08-06T13:06:36;10.43;;;7.90;;
21611;SDS011;47005;52.292;13.452;2023-08-06T13:09:02;9.95;;;8.77;;
21611;SDS011;47005;52.292;13.452;2023-08-06T13:11:29;10.00;;;8.10;;
21611;SDS011;47005;52.292;13.452;2023-08-06T13:13:58;9.45;;;7.22;;
21611;SDS011;47005;52.292;13.452;2023-08-06T13:16:28;9.23;;;6.03;;
21611;SDS011;47005;52.292;13.452;2023-08-06T13:18:54;8.85;;;5.63;;
21611;SDS011;47005;52.292;13.452;2023-08-06T13:21:19;5.13;;;3.75;;
21611;SDS011;47005;52.292;13.452;2023-08-06T13:23:45;5.65;;;3.67;;
21611;SDS011;47005;52.292;13.452;2023-08-06T13:26:12;6.03;;;4.35;;
21611;SDS011;47005;52.292;13.452;2023-08-06T13:28:38;5.57;;;3.90;;
21611;SDS011;47005;52.292;13.452;2023-08-06T13:31:04;5.07;;;3.63;;
21611;SDS011;47005;52.292;13.452;2023-08-06T13:33:29;7.10;;;3.85;;
21611;SDS011;47005;52.292;13.452;2023-08-06T13:35:55;13.00;;;4.00;;
21611;SDS011;47005;52.292;13.452;2023-08-06T13:38:21;5.97;;;2.95;;
21611;SDS011;47005;52.292;13.452;2023-08-06T13:40:46;4.85;;;2.55;;
21611;SDS011;47005;52.292;13.452;2023-08-06T13:43:13;4.68;;;3.08;;
21611;SDS011;47005;52.292;13.452;2023-08-06T13:45:40;4.20;;;2.58;;
21611;SDS011;47005;52.292;13.452;2023-08-06T13:48:06;3.78;;;2.50;;
21611;SDS011;47005;52.292;13.452;2023-08-06T13:50:32;4.88;;;2.13;;
21611;SDS011;47005;52.292;13.452;2023-08-06T13:52:57;4.32;;;2.65;;
21611;SDS011;47005;52.292;13.452;2023-08-06T13:55:23;6.68;;;3.10;;
21611;SDS011;47005;52.292;13.452;2023-08-06T13:57:49;4.78;;;2.70;;
21611;SDS011;47005;52.292;13.452;2023-08-06T14:00:14;3.53;;;2.28;;
21611;SDS011;47005;52.292;13.452;2023-08-06T14:02:40;4.32;;;2.83;;
21611;SDS011;47005;52.292;13.452;2023-08-06T14:05:06;5.75;;;2.25;;
21611;SDS011;47005;52.292;13.452;2023-08-06T14:07:32;7.43;;;2.75;;
21611;SDS011;47005;52.292;13.452;2023-08-06T14:09:58;6.38;;;2.70;;
21611;SDS011;47005;52.292;13.452;2023-08-06T14:12:23;6.10;;;2.35;;
21611;SDS011;47005;52.292;13.452;2023-08-06T14:14:49;4.38;;;3.00;;
21611;SDS011;47005;52.292;13.452;2023-08-06T14:17:15;6.97;;;3.13;;
21611;SDS011;47005;52.292;13.452;2023-08-06T14:19:40;5.40;;;3.42;;
21611;SDS011;47005;52.292;13.452;2023-08-06T14:22:06;10.40;;;2.92;;
21611;SDS011;47005;52.292;13.452;2023-08-06T14:24:32;4.18;;;2.67;;
21611;SDS011;47005;52.292;13.452;2023-08-06T14:26:57;4.22;;;2.80;;
21611;SDS011;47005;52.292;13.452;2023-08-06T14:29:23;5.28;;;3.45;;
21611;SDS011;47005;52.292;13.452;2023-08-06T14:31:49;5.82;;;3.00;;
21611;SDS011;47005;52.292;13.452;2023-08-06T14:34:15;6.70;;;3.67;;
21611;SDS011;47005;52.292;13.452;2023-08-06T14:36:40;5.00;;;3.38;;
21611;SDS011;47005;52.292;13.452;2023-08-06T14:39:06;6.10;;;3.13;;
21611;SDS011;47005;52.292;13.452;2023-08-06T14:41:32;5.05;;;3.03;;
21611;SDS011;47005;52.292;13.452;2023-08-06T14:43:57;4.47;;;3.33;;